createdAt,value
2019-04-20T00:01:25.478Z,16.63
2019-04-20T00:03:51.938Z,16.61
2019-04-20T00:06:22.018Z,16.58
2019-04-20T00:08:59.952Z,16.57
2019-04-20T00:11:29.804Z,16.55
2019-04-20T00:14:03.652Z,16.52
2019-04-20T00:16:27.360Z,16.47
2019-04-20T00:19:00.735Z,16.41
2019-04-20T00:21:50.658Z,16.35
2019-04-20T00:24:25.012Z,16.33
2019-04-20T00:27:30.270Z,16.29
2019-04-20T00:29:47.852Z,16.29
2019-04-20T00:32:09.867Z,16.27
2019-04-20T00:34:33.780Z,16.27
2019-04-20T00:37:02.300Z,16.28
2019-04-20T00:39:32.375Z,16.31
2019-04-20T00:42:08.118Z,16.33
2019-04-20T00:44:39.517Z,16.32
2019-04-20T00:47:16.950Z,16.35
2019-04-20T00:49:53.648Z,16.37
2019-04-20T00:52:27.641Z,16.36
2019-04-20T00:54:43.169Z,16.35
2019-04-20T00:57:22.409Z,16.33
2019-04-20T01:00:07.291Z,16.32
2019-04-20T01:02:32.632Z,16.29
2019-04-20T01:05:05.436Z,16.23
2019-04-20T01:07:49.577Z,16.17
2019-04-20T01:10:15.752Z,16.14
2019-04-20T01:12:47.447Z,16.10
2019-04-20T01:15:29.687Z,16.05
2019-04-20T01:17:49.777Z,15.97
2019-04-20T01:20:22.695Z,15.96
2019-04-20T01:23:00.177Z,15.97
2019-04-20T01:25:29.960Z,15.97
2019-04-20T01:28:18.366Z,15.92
2019-04-20T01:30:34.014Z,15.89
2019-04-20T01:33:12.749Z,15.83
2019-04-20T01:35:52.086Z,15.78
2019-04-20T01:38:23.674Z,15.73
2019-04-20T01:40:36.138Z,15.70
2019-04-20T01:43:06.313Z,15.68
2019-04-20T01:45:40.606Z,15.65
2019-04-20T01:48:09.885Z,15.62
2019-04-20T01:50:49.949Z,15.52
2019-04-20T01:53:23.678Z,15.48
2019-04-20T01:56:05.417Z,15.43
2019-04-20T01:58:46.163Z,15.39
2019-04-20T02:01:33.577Z,15.38
2019-04-20T02:04:11.679Z,15.34
2019-04-20T02:06:43.568Z,15.30
2019-04-20T02:09:16.773Z,15.24
2019-04-20T02:11:46.871Z,15.21
2019-04-20T02:14:24.261Z,15.19
2019-04-20T02:16:51.519Z,15.19
2019-04-20T02:19:31.636Z,15.20
2019-04-20T02:22:04.054Z,15.19
2019-04-20T02:24:21.997Z,15.16
2019-04-20T02:26:52.102Z,15.07
2019-04-20T02:29:46.043Z,15.08
2019-04-20T02:35:30.104Z,14.98
2019-04-20T02:38:10.405Z,14.95
2019-04-20T02:43:15.663Z,14.83
2019-04-20T02:45:49.168Z,14.79
2019-04-20T02:48:13.496Z,14.71
2019-04-20T02:50:54.541Z,14.74
2019-04-20T02:53:34.406Z,14.72
2019-04-20T02:55:57.673Z,14.68
2019-04-20T02:58:23.891Z,14.64
2019-04-20T03:00:55.165Z,14.59
2019-04-20T03:03:12.432Z,14.54
2019-04-20T03:05:42.420Z,14.51
2019-04-20T03:08:17.327Z,14.41
2019-04-20T03:11:01.885Z,14.38
2019-04-20T03:13:27.065Z,14.37
2019-04-20T03:15:54.914Z,14.36
2019-04-20T03:18:25.291Z,14.39
2019-04-20T03:21:00.695Z,14.36
2019-04-20T03:23:37.228Z,14.32
2019-04-20T03:26:10.997Z,14.18
2019-04-20T03:29:03.991Z,14.20
2019-04-20T03:32:33.036Z,14.22
2019-04-20T03:39:23.287Z,14.28
2019-04-20T03:41:40.494Z,14.31
2019-04-20T03:44:10.525Z,14.33
2019-04-20T03:46:45.521Z,14.34
2019-04-20T03:49:27.525Z,14.28
2019-04-20T03:52:22.058Z,14.21
2019-04-20T03:55:24.257Z,14.16
2019-04-20T03:58:02.912Z,14.16
2019-04-20T04:00:44.298Z,14.20
2019-04-20T04:03:36.142Z,14.23
2019-04-20T04:06:03.048Z,14.25
2019-04-20T04:08:27.730Z,14.26
2019-04-20T04:11:14.838Z,14.22
2019-04-20T04:13:25.198Z,14.22
2019-04-20T04:16:01.139Z,14.20
2019-04-20T04:18:34.701Z,14.16
2019-04-20T04:21:04.791Z,14.14
2019-04-20T04:23:55.437Z,14.13
2019-04-20T04:26:22.328Z,14.14
2019-04-20T04:28:51.950Z,14.14
2019-04-20T04:31:31.106Z,14.17
2019-04-20T04:33:59.636Z,14.13
2019-04-20T04:36:29.327Z,14.12
2019-04-20T04:39:02.567Z,14.11
2019-04-20T04:41:31.009Z,14.12
2019-04-20T04:44:06.105Z,14.12
2019-04-20T04:46:18.575Z,14.10
2019-04-20T04:48:51.688Z,14.08
2019-04-20T04:51:25.669Z,14.06
2019-04-20T04:53:59.794Z,14.04
2019-04-20T04:56:28.296Z,14.05
2019-04-20T04:58:58.195Z,14.04
2019-04-20T05:01:31.834Z,14.05
2019-04-20T05:04:31.685Z,14.05
2019-04-20T05:06:45.812Z,14.06
2019-04-20T05:09:06.064Z,14.08
2019-04-20T05:11:35.579Z,14.04
2019-04-20T05:14:11.003Z,14.02
2019-04-20T05:16:56.979Z,14.06
2019-04-20T05:19:30.450Z,14.11
2019-04-20T05:22:14.895Z,14.12
2019-04-20T05:24:48.179Z,14.13
2019-04-20T05:27:51.221Z,14.13
2019-04-20T05:30:03.723Z,14.14
2019-04-20T05:32:44.887Z,14.14
2019-04-20T05:35:26.834Z,14.16
2019-04-20T05:38:06.965Z,14.18
2019-04-20T05:40:35.197Z,14.16
2019-04-20T05:43:13.158Z,14.18
2019-04-20T05:45:40.619Z,14.18
2019-04-20T05:48:11.843Z,14.18
2019-04-20T05:50:51.928Z,14.22
2019-04-20T05:53:19.909Z,14.21
2019-04-20T05:55:52.492Z,14.23
2019-04-20T05:58:26.111Z,14.24
2019-04-20T06:01:02.756Z,14.24
2019-04-20T06:03:34.104Z,14.26
2019-04-20T06:06:08.064Z,14.28
2019-04-20T06:08:46.510Z,14.32
2019-04-20T06:11:07.942Z,14.32
2019-04-20T06:13:40.690Z,14.35
2019-04-20T06:16:23.019Z,14.36
2019-04-20T06:19:10.043Z,14.34
2019-04-20T06:21:37.904Z,14.33
2019-04-20T06:24:16.747Z,14.35
2019-04-20T06:29:18.485Z,14.46
2019-04-20T06:31:57.846Z,14.52
2019-04-20T06:34:33.404Z,14.60
2019-04-20T06:44:52.401Z,14.75
2019-04-20T06:49:38.006Z,14.84
2019-04-20T06:52:26.196Z,14.87
2019-04-20T06:55:05.628Z,14.89
2019-04-20T06:57:46.404Z,14.94
2019-04-20T07:00:15.641Z,14.99
2019-04-20T07:03:01.848Z,15.05
2019-04-20T07:05:21.201Z,15.12
2019-04-20T07:07:53.394Z,15.16
2019-04-20T07:10:26.266Z,15.22
2019-04-20T07:12:49.723Z,15.28
2019-04-20T07:15:22.733Z,15.37
2019-04-20T07:18:02.741Z,15.47
2019-04-20T07:20:55.518Z,15.56
2019-04-20T07:26:00.086Z,15.73
2019-04-20T07:28:35.583Z,15.82
2019-04-20T07:31:05.145Z,15.88
2019-04-20T07:33:32.212Z,15.92
2019-04-20T07:36:04.212Z,15.97
2019-04-20T07:41:12.951Z,16.06
2019-04-20T07:43:51.014Z,16.10
2019-04-20T07:46:24.919Z,16.13
2019-04-20T07:48:42.881Z,16.18
2019-04-20T07:51:05.478Z,16.24
2019-04-20T07:53:36.333Z,16.33
2019-04-20T07:56:16.335Z,16.39
2019-04-20T07:58:38.733Z,16.46
2019-04-20T08:01:38.838Z,16.49
2019-04-20T08:04:08.070Z,16.56
2019-04-20T08:06:29.839Z,16.62
2019-04-20T08:09:08.715Z,16.70
2019-04-20T08:11:50.843Z,16.77
2019-04-20T08:14:19.302Z,16.84
2019-04-20T08:16:58.242Z,16.91
2019-04-20T08:19:17.393Z,16.97
2019-04-20T08:21:52.926Z,17.02
2019-04-20T08:24:21.373Z,17.08
2019-04-20T08:26:43.435Z,17.12
2019-04-20T08:29:21.492Z,17.16
2019-04-20T08:32:14.071Z,17.22
2019-04-20T08:34:53.750Z,17.24
2019-04-20T08:37:18.564Z,17.22
2019-04-20T08:39:58.695Z,17.25
2019-04-20T08:42:24.818Z,17.28
2019-04-20T08:45:03.683Z,17.32
2019-04-20T08:47:37.868Z,17.37
2019-04-20T08:50:27.225Z,17.43
2019-04-20T08:55:18.058Z,17.53
2019-04-20T08:57:31.321Z,17.57
2019-04-20T09:00:03.536Z,17.63
2019-04-20T09:02:34.693Z,17.65
2019-04-20T09:05:14.675Z,17.69
2019-04-20T09:07:53.843Z,17.73
2019-04-20T09:10:34.401Z,17.76
2019-04-20T09:12:58.592Z,17.78
2019-04-20T09:15:16.819Z,17.78
2019-04-20T09:18:20.796Z,17.80
2019-04-20T09:20:50.603Z,17.86
2019-04-20T09:23:29.578Z,17.93
2019-04-20T09:26:05.919Z,18.02
2019-04-20T09:28:31.900Z,18.07
2019-04-20T09:31:36.944Z,18.12
2019-04-20T09:34:15.453Z,18.15
2019-04-20T09:37:12.916Z,18.20
2019-04-20T09:39:51.302Z,18.21
2019-04-20T09:42:20.343Z,18.23
2019-04-20T09:44:54.405Z,18.26
2019-04-20T09:47:27.468Z,18.34
2019-04-20T09:50:03.420Z,18.42
2019-04-20T09:52:41.079Z,18.45
2019-04-20T09:55:10.522Z,18.50
2019-04-20T09:57:43.897Z,18.53
2019-04-20T10:00:16.844Z,18.57
2019-04-20T10:02:37.973Z,18.63
2019-04-20T10:05:09.424Z,18.72
2019-04-20T10:07:40.999Z,18.81
2019-04-20T10:10:21.502Z,18.88
2019-04-20T10:12:43.923Z,18.98
2019-04-20T10:15:35.399Z,19.03
2019-04-20T10:18:07.920Z,19.09
2019-04-20T10:20:41.405Z,19.19
2019-04-20T10:23:12.459Z,19.29
2019-04-20T10:25:42.997Z,19.41
2019-04-20T10:28:13.923Z,19.57
2019-04-20T10:30:44.680Z,19.77
2019-04-20T10:33:15.496Z,19.99
2019-04-20T10:35:45.660Z,20.18
2019-04-20T10:38:21.523Z,20.38
2019-04-20T10:41:01.950Z,20.55
2019-04-20T10:43:23.942Z,20.71
2019-04-20T10:45:55.042Z,20.88
2019-04-20T10:48:25.077Z,21.02
2019-04-20T10:50:55.098Z,21.16
2019-04-20T10:53:25.994Z,21.40
2019-04-20T10:55:56.172Z,21.40
2019-04-20T10:58:27.376Z,21.59
2019-04-20T11:00:57.676Z,21.72
2019-04-20T11:03:28.912Z,21.86
2019-04-20T11:06:00.603Z,21.99
2019-04-20T11:08:30.744Z,22.13
2019-04-20T11:11:11.893Z,22.27
2019-04-20T11:13:33.164Z,22.42
2019-04-20T11:16:04.306Z,22.52
2019-04-20T11:18:35.521Z,22.62
2019-04-20T11:21:07.198Z,22.71
2019-04-20T11:23:38.321Z,22.79
2019-04-20T11:26:08.667Z,22.92
2019-04-20T11:28:40.009Z,23.04
2019-04-20T11:31:10.286Z,23.07
2019-04-20T11:33:40.516Z,23.24
2019-04-20T11:36:10.542Z,23.32
2019-04-20T11:38:40.901Z,23.47
2019-04-20T11:41:17.835Z,23.59
2019-04-20T11:43:44.042Z,23.66
2019-04-20T11:46:14.548Z,23.75
2019-04-20T11:48:45.462Z,23.81
2019-04-20T11:51:16.070Z,23.93
2019-04-20T11:53:48.204Z,24.07
2019-04-20T11:56:24.054Z,24.19
2019-04-20T11:58:51.039Z,24.28
2019-04-20T12:01:47.925Z,24.40
2019-04-20T12:04:26.106Z,24.46
2019-04-20T12:06:46.691Z,24.58
2019-04-20T12:09:17.125Z,24.64
2019-04-20T12:11:59.719Z,24.81
2019-04-20T12:14:18.915Z,24.97
2019-04-20T12:16:49.961Z,25.17
2019-04-20T12:19:20.930Z,25.35
2019-04-20T12:21:51.683Z,25.42
2019-04-20T12:24:22.671Z,25.42
2019-04-20T12:26:54.362Z,25.51
2019-04-20T12:29:25.715Z,25.69
2019-04-20T12:31:59.115Z,25.76
2019-04-20T12:34:28.678Z,25.79
2019-04-20T12:36:58.853Z,25.78
2019-04-20T12:39:29.084Z,25.78
2019-04-20T12:42:02.831Z,25.79
2019-04-20T12:44:32.041Z,25.78
2019-04-20T12:47:02.068Z,25.83
2019-04-20T12:49:32.089Z,25.90
2019-04-20T12:52:05.133Z,25.99
2019-04-20T12:54:34.501Z,26.08
2019-04-20T12:57:04.686Z,26.22
2019-04-20T12:59:35.791Z,26.33
2019-04-20T13:02:07.117Z,26.41
2019-04-20T13:04:37.401Z,26.53
2019-04-20T13:07:08.028Z,26.67
2019-04-20T13:09:46.383Z,26.87
2019-04-20T13:12:32.213Z,27.05
2019-04-20T13:15:22.355Z,27.15
2019-04-20T13:17:54.163Z,27.29
2019-04-20T13:20:24.043Z,27.39
2019-04-20T13:22:55.012Z,27.44
2019-04-20T13:25:26.197Z,27.55
2019-04-20T13:27:56.917Z,27.63
2019-04-20T13:30:27.997Z,27.76
2019-04-20T13:32:59.337Z,27.90
2019-04-20T13:35:30.106Z,27.98
2019-04-20T13:38:00.341Z,28.07
2019-04-20T13:40:31.721Z,28.14
2019-04-20T13:43:01.777Z,28.27
2019-04-20T13:45:32.962Z,28.36
2019-04-20T13:48:04.252Z,28.38
2019-04-20T13:50:35.920Z,28.41
2019-04-20T13:53:07.601Z,28.56
2019-04-20T13:55:38.907Z,28.72
2019-04-20T13:58:31.808Z,28.78
2019-04-20T14:01:21.144Z,28.87
2019-04-20T14:04:10.839Z,28.99
2019-04-20T14:06:41.816Z,29.09
2019-04-20T14:09:12.267Z,29.16
2019-04-20T14:11:43.407Z,29.14
2019-04-20T14:14:15.188Z,29.10
2019-04-20T14:16:45.458Z,29.05
2019-04-20T14:19:16.522Z,28.96
2019-04-20T14:21:48.167Z,28.87
2019-04-20T14:24:19.180Z,28.77
2019-04-20T14:26:49.174Z,28.62
2019-04-20T14:29:19.228Z,28.47
2019-04-20T14:31:50.039Z,28.25
2019-04-20T14:34:20.706Z,28.18
2019-04-20T14:36:50.965Z,27.96
2019-04-20T14:39:20.921Z,27.84
2019-04-20T14:41:52.018Z,27.73
2019-04-20T14:44:21.989Z,27.56
2019-04-20T14:46:51.935Z,27.46
2019-04-20T14:49:22.966Z,27.47
2019-04-20T14:51:55.818Z,27.35
2019-04-20T14:54:25.574Z,27.16
2019-04-20T14:56:56.598Z,27.00
2019-04-20T14:59:33.798Z,26.86
2019-04-20T15:02:06.664Z,26.69
2019-04-20T15:04:37.156Z,26.53
2019-04-20T15:07:07.207Z,26.49
2019-04-20T15:09:40.503Z,26.41
2019-04-20T15:12:11.026Z,26.40
2019-04-20T15:14:41.086Z,26.47
2019-04-20T15:17:13.146Z,26.46
2019-04-20T15:19:55.646Z,26.41
2019-04-20T15:22:35.918Z,26.44
2019-04-20T15:25:07.635Z,26.44
2019-04-20T15:27:38.561Z,26.45
2019-04-20T15:30:09.618Z,26.47
2019-04-20T15:32:40.643Z,26.45
2019-04-20T15:35:11.173Z,26.53
2019-04-20T15:37:42.444Z,26.68
2019-04-20T15:40:13.142Z,26.77
2019-04-20T15:42:56.581Z,26.89
2019-04-20T15:45:16.158Z,26.98
2019-04-20T15:47:47.922Z,27.17
2019-04-20T15:50:20.222Z,27.45
2019-04-20T15:52:52.641Z,27.66
2019-04-20T15:55:27.418Z,27.67
2019-04-20T15:57:55.429Z,27.69
2019-04-20T16:00:26.683Z,27.80
2019-04-20T16:03:01.295Z,27.95
2019-04-20T16:05:49.449Z,28.10
2019-04-20T16:08:28.197Z,28.36
2019-04-20T16:10:59.363Z,28.54
2019-04-20T16:13:35.812Z,29.00
2019-04-20T16:16:01.510Z,29.51
2019-04-20T16:18:34.926Z,30.24
2019-04-20T16:21:11.664Z,30.97
2019-04-20T16:23:56.999Z,31.64
2019-04-20T16:26:44.166Z,32.04
2019-04-20T16:29:15.390Z,32.49
2019-04-20T16:31:54.631Z,32.71
2019-04-20T16:34:25.495Z,32.95
2019-04-20T16:36:57.849Z,33.03
2019-04-20T16:39:28.291Z,32.88
2019-04-20T16:41:58.588Z,32.76
2019-04-20T16:44:29.338Z,32.48
2019-04-20T16:47:00.482Z,32.16
2019-04-20T16:49:32.779Z,31.82
2019-04-20T16:52:03.120Z,31.57
2019-04-20T16:54:32.984Z,31.38
2019-04-20T16:57:04.585Z,31.11
2019-04-20T16:59:40.137Z,30.71
2019-04-20T17:02:06.667Z,30.31
2019-04-20T17:04:37.491Z,30.08
2019-04-20T17:07:20.681Z,29.94
2019-04-20T17:09:51.818Z,29.75
2019-04-20T17:12:21.929Z,29.49
2019-04-20T17:14:52.018Z,29.21
2019-04-20T17:17:22.306Z,28.85
2019-04-20T17:19:53.492Z,28.33
2019-04-20T17:22:23.857Z,27.81
2019-04-20T17:24:53.863Z,27.18
2019-04-20T17:27:44.789Z,26.75
2019-04-20T17:30:53.121Z,26.38
2019-04-20T17:33:50.723Z,26.07
2019-04-20T17:36:18.812Z,25.71
2019-04-20T17:38:52.158Z,25.44
2019-04-20T17:41:38.735Z,25.26
2019-04-20T17:44:05.703Z,25.06
2019-04-20T17:46:32.709Z,24.92
2019-04-20T17:49:09.335Z,24.77
2019-04-20T17:51:47.563Z,24.55
2019-04-20T17:54:16.155Z,24.46
2019-04-20T17:56:46.675Z,24.36
2019-04-20T17:59:16.887Z,24.19
2019-04-20T18:02:19.047Z,24.11
2019-04-20T18:05:07.170Z,24.04
2019-04-20T18:07:41.284Z,23.93
2019-04-20T18:10:06.665Z,23.82
2019-04-20T18:12:26.932Z,23.72
2019-04-20T18:15:06.167Z,23.64
2019-04-20T18:18:02.695Z,23.51
2019-04-20T18:20:20.896Z,23.42
2019-04-20T18:22:56.539Z,23.31
2019-04-20T18:25:53.248Z,23.25
2019-04-20T18:28:13.811Z,23.13
2019-04-20T18:30:46.809Z,23.06
2019-04-20T18:33:09.495Z,22.99
2019-04-20T18:35:44.373Z,22.95
2019-04-20T18:38:15.222Z,22.88
2019-04-20T18:40:55.086Z,22.83
2019-04-20T18:43:20.512Z,22.78
2019-04-20T18:46:08.078Z,22.76
2019-04-20T18:48:44.081Z,22.70
2019-04-20T18:50:54.585Z,22.64
2019-04-20T18:53:32.510Z,22.56
2019-04-20T18:55:59.497Z,22.52
2019-04-20T18:58:31.227Z,22.44
2019-04-20T19:01:01.553Z,22.39
2019-04-20T19:03:35.713Z,22.31
2019-04-20T19:06:05.987Z,22.26
2019-04-20T19:08:40.476Z,22.20
2019-04-20T19:11:13.161Z,22.17
2019-04-20T19:13:47.813Z,22.09
2019-04-20T19:16:32.765Z,22.06
2019-04-20T19:19:23.541Z,22.02
2019-04-20T19:21:43.680Z,21.99
2019-04-20T19:24:17.803Z,21.94
2019-04-20T19:26:53.682Z,21.90
2019-04-20T19:29:26.494Z,21.86
2019-04-20T19:32:11.561Z,21.75
2019-04-20T19:34:36.410Z,21.75
2019-04-20T19:37:06.218Z,21.72
2019-04-20T19:39:44.900Z,21.58
2019-04-20T19:42:14.322Z,21.63
2019-04-20T19:44:44.949Z,21.63
2019-04-20T19:47:24.937Z,21.58
2019-04-20T19:49:44.008Z,21.58
2019-04-20T19:52:36.907Z,21.54
2019-04-20T19:54:56.774Z,21.49
2019-04-20T19:57:34.676Z,21.42
2019-04-20T19:59:47.249Z,21.43
2019-04-20T20:02:16.124Z,21.35
2019-04-20T20:04:50.808Z,21.35
2019-04-20T20:07:26.762Z,21.32
2019-04-20T20:09:56.636Z,21.30
2019-04-20T20:12:23.355Z,21.27
2019-04-20T20:14:55.224Z,21.25
2019-04-20T20:17:52.839Z,21.19
2019-04-20T20:20:30.365Z,21.17
2019-04-20T20:22:40.447Z,21.12
2019-04-20T20:25:05.630Z,21.11
2019-04-20T20:27:46.960Z,21.04
2019-04-20T20:30:15.084Z,21.02
2019-04-20T20:32:55.108Z,20.98
2019-04-20T20:35:20.213Z,20.95
2019-04-20T20:37:52.665Z,20.93
2019-04-20T20:40:25.599Z,20.89
2019-04-20T20:43:01.475Z,20.87
2019-04-20T20:45:29.628Z,20.86
2019-04-20T20:48:12.153Z,20.84
2019-04-20T20:50:42.664Z,20.80
2019-04-20T20:53:09.023Z,20.73
2019-04-20T20:55:37.137Z,20.67
2019-04-20T20:58:10.633Z,20.63
2019-04-20T21:00:45.753Z,20.58
2019-04-20T21:03:09.124Z,20.52
2019-04-20T21:05:37.655Z,20.52
2019-04-20T21:08:07.967Z,20.48
2019-04-20T21:10:42.068Z,20.45
2019-04-20T21:13:12.083Z,20.40
2019-04-20T21:15:45.425Z,20.36
2019-04-20T21:18:37.918Z,20.30
2019-04-20T21:21:02.157Z,20.30
2019-04-20T21:23:34.156Z,20.29
2019-04-20T21:26:11.519Z,20.24
2019-04-20T21:28:41.931Z,20.24
2019-04-20T21:31:18.109Z,20.20
2019-04-20T21:33:44.804Z,20.11
2019-04-20T21:36:19.229Z,20.08
2019-04-20T21:38:48.666Z,20.08
2019-04-20T21:41:22.147Z,20.01
2019-04-20T21:43:53.873Z,20.01
2019-04-20T21:46:24.928Z,19.91
2019-04-20T21:49:06.394Z,19.91
2019-04-20T21:51:37.078Z,19.86
2019-04-20T21:56:53.791Z,19.73
2019-04-20T21:59:27.206Z,19.65
2019-04-20T22:01:58.763Z,19.61
2019-04-20T22:04:25.047Z,19.58
2019-04-20T22:07:14.604Z,19.56
2019-04-20T22:09:48.901Z,19.57
2019-04-20T22:12:18.037Z,19.57
2019-04-20T22:14:57.877Z,19.57
2019-04-20T22:17:24.595Z,19.55
2019-04-20T22:20:03.794Z,19.53
2019-04-20T22:22:44.110Z,19.50
2019-04-20T22:25:10.999Z,19.50
2019-04-20T22:27:34.340Z,19.48
2019-04-20T22:30:02.188Z,19.46
2019-04-20T22:32:37.592Z,19.43
2019-04-20T22:35:11.722Z,19.41
2019-04-20T22:38:08.984Z,19.37
2019-04-20T22:40:36.946Z,19.33
2019-04-20T22:43:08.282Z,19.31
2019-04-20T22:45:42.919Z,19.29
2019-04-20T22:48:13.839Z,19.28
2019-04-20T22:51:03.503Z,19.23
2019-04-20T22:53:28.667Z,19.18
2019-04-20T22:56:10.998Z,19.12
2019-04-20T22:58:33.611Z,19.06
2019-04-20T23:00:55.922Z,19.00
2019-04-20T23:03:22.922Z,18.90
2019-04-20T23:05:54.369Z,18.82
2019-04-20T23:08:24.771Z,18.72
2019-04-20T23:10:55.642Z,18.60
2019-04-20T23:13:30.378Z,18.53
2019-04-20T23:16:00.872Z,18.49
2019-04-20T23:18:29.276Z,18.41
2019-04-20T23:21:01.325Z,18.38
2019-04-20T23:23:32.165Z,18.30
2019-04-20T23:26:03.102Z,18.13
2019-04-20T23:28:33.365Z,18.05
2019-04-20T23:31:07.341Z,17.96
2019-04-20T23:33:36.075Z,17.89
2019-04-20T23:36:06.794Z,17.85
2019-04-20T23:38:39.044Z,17.73
2019-04-20T23:41:10.702Z,17.68
2019-04-20T23:43:45.246Z,17.67
2019-04-20T23:46:31.115Z,17.64
2019-04-20T23:49:28.157Z,17.59
2019-04-20T23:52:22.039Z,17.53
2019-04-20T23:54:30.226Z,17.44
2019-04-20T23:56:59.797Z,17.38
2019-04-20T23:59:35.785Z,17.33
